Irvington, Illinois
Current Conditions -  °F | °C
As of 2:15 PM on Thursday 23 Oct 2014 (Local Time) from KENL Reporting Station
Clear Clear  
Wind Chill: 60°   Ceiling: Unl
Heat Index: 60°   Visibility: 10mi
Dew Point: 43°   Wind: 3mph
Humidity: 53%   Direction: 200°SSW
Pressure: 30.16"   Gusts: NA
Location:  38.44°N, 89.16°W
Report Text: KENL 231915Z AUTO 20003KT 10SM CLR 16/06 A3016 RMK AO2 T01550059
Loading
Personal Weather Stations






























Interactive Weather Map
Tropical Storm Tracking
New forecast layout! Learn more

10-Day Weather Forecast

Advertisements
Track Severe Weather on mobile